sensor_id;sensor_type;location;lat;lon;timestamp;P1;durP1;ratioP1;P2;durP2;ratioP2
27505;SDS011;14939;43.596;1.320;2023-05-10T00:00:57;29.30;;;5.70;;
27505;SDS011;14939;43.596;1.320;2023-05-10T00:03:24;27.65;;;5.00;;
27505;SDS011;14939;43.596;1.320;2023-05-10T00:05:50;24.70;;;5.43;;
27505;SDS011;14939;43.596;1.320;2023-05-10T00:08:15;22.25;;;5.53;;
27505;SDS011;14939;43.596;1.320;2023-05-10T00:10:41;26.20;;;5.53;;
27505;SDS011;14939;43.596;1.320;2023-05-10T00:13:07;27.33;;;5.45;;
27505;SDS011;14939;43.596;1.320;2023-05-10T00:15:32;25.80;;;5.28;;
27505;SDS011;14939;43.596;1.320;2023-05-10T00:17:59;31.05;;;6.00;;
27505;SDS011;14939;43.596;1.320;2023-05-10T00:20:25;29.63;;;5.85;;
27505;SDS011;14939;43.596;1.320;2023-05-10T00:22:51;27.25;;;6.03;;
27505;SDS011;14939;43.596;1.320;2023-05-10T00:25:17;26.90;;;5.45;;
27505;SDS011;14939;43.596;1.320;2023-05-10T00:27:43;27.27;;;5.72;;
27505;SDS011;14939;43.596;1.320;2023-05-10T00:30:08;23.17;;;5.35;;
27505;SDS011;14939;43.596;1.320;2023-05-10T00:32:34;22.50;;;5.45;;
27505;SDS011;14939;43.596;1.320;2023-05-10T00:35:00;31.27;;;6.38;;
27505;SDS011;14939;43.596;1.320;2023-05-10T00:37:26;38.67;;;5.75;;
27505;SDS011;14939;43.596;1.320;2023-05-10T00:39:52;26.73;;;4.95;;
27505;SDS011;14939;43.596;1.320;2023-05-10T00:42:18;33.67;;;6.00;;
27505;SDS011;14939;43.596;1.320;2023-05-10T00:44:44;28.67;;;6.07;;
27505;SDS011;14939;43.596;1.320;2023-05-10T00:47:09;30.77;;;5.70;;
27505;SDS011;14939;43.596;1.320;2023-05-10T00:49:36;32.67;;;5.70;;
27505;SDS011;14939;43.596;1.320;2023-05-10T00:52:02;24.50;;;4.90;;
27505;SDS011;14939;43.596;1.320;2023-05-10T00:54:28;35.90;;;5.45;;
27505;SDS011;14939;43.596;1.320;2023-05-10T00:56:54;28.90;;;5.13;;
27505;SDS011;14939;43.596;1.320;2023-05-10T00:59:22;34.65;;;6.10;;
27505;SDS011;14939;43.596;1.320;2023-05-10T01:01:47;27.08;;;4.97;;
27505;SDS011;14939;43.596;1.320;2023-05-10T01:04:13;32.40;;;5.25;;
27505;SDS011;14939;43.596;1.320;2023-05-10T01:06:40;26.23;;;5.10;;
27505;SDS011;14939;43.596;1.320;2023-05-10T01:09:06;26.83;;;4.65;;
27505;SDS011;14939;43.596;1.320;2023-05-10T01:11:36;21.20;;;4.85;;
27505;SDS011;14939;43.596;1.320;2023-05-10T01:14:04;23.55;;;4.75;;
27505;SDS011;14939;43.596;1.320;2023-05-10T01:16:38;25.27;;;4.97;;
27505;SDS011;14939;43.596;1.320;2023-05-10T01:27:17;36.58;;;5.30;;
27505;SDS011;14939;43.596;1.320;2023-05-10T01:32:49;26.88;;;4.95;;
27505;SDS011;14939;43.596;1.320;2023-05-10T01:35:32;20.63;;;4.63;;
27505;SDS011;14939;43.596;1.320;2023-05-10T01:40:39;26.88;;;4.85;;
27505;SDS011;14939;43.596;1.320;2023-05-10T01:43:22;31.23;;;5.07;;
27505;SDS011;14939;43.596;1.320;2023-05-10T01:46:00;29.55;;;4.78;;
27505;SDS011;14939;43.596;1.320;2023-05-10T01:48:35;23.00;;;4.73;;
27505;SDS011;14939;43.596;1.320;2023-05-10T01:51:21;27.00;;;4.72;;
27505;SDS011;14939;43.596;1.320;2023-05-10T01:53:51;21.95;;;4.40;;
27505;SDS011;14939;43.596;1.320;2023-05-10T01:56:24;25.25;;;4.20;;
27505;SDS011;14939;43.596;1.320;2023-05-10T01:58:53;25.17;;;4.47;;
27505;SDS011;14939;43.596;1.320;2023-05-10T02:01:21;21.23;;;4.30;;
27505;SDS011;14939;43.596;1.320;2023-05-10T02:03:47;34.17;;;4.95;;
27505;SDS011;14939;43.596;1.320;2023-05-10T02:06:15;25.42;;;4.35;;
27505;SDS011;14939;43.596;1.320;2023-05-10T02:08:43;25.98;;;4.50;;
27505;SDS011;14939;43.596;1.320;2023-05-10T02:11:12;20.77;;;4.38;;
27505;SDS011;14939;43.596;1.320;2023-05-10T02:13:39;23.55;;;4.65;;
27505;SDS011;14939;43.596;1.320;2023-05-10T02:16:08;22.38;;;4.20;;
27505;SDS011;14939;43.596;1.320;2023-05-10T02:18:35;23.52;;;4.72;;
27505;SDS011;14939;43.596;1.320;2023-05-10T02:21:02;24.08;;;3.92;;
27505;SDS011;14939;43.596;1.320;2023-05-10T02:23:28;29.30;;;4.50;;
27505;SDS011;14939;43.596;1.320;2023-05-10T02:25:55;25.33;;;4.15;;
27505;SDS011;14939;43.596;1.320;2023-05-10T02:28:23;26.42;;;4.70;;
27505;SDS011;14939;43.596;1.320;2023-05-10T02:30:51;24.80;;;4.15;;
27505;SDS011;14939;43.596;1.320;2023-05-10T02:33:17;29.25;;;4.78;;
27505;SDS011;14939;43.596;1.320;2023-05-10T02:35:45;27.10;;;4.82;;
27505;SDS011;14939;43.596;1.320;2023-05-10T02:38:12;31.15;;;4.50;;
27505;SDS011;14939;43.596;1.320;2023-05-10T02:40:39;24.13;;;4.82;;
27505;SDS011;14939;43.596;1.320;2023-05-10T02:43:06;24.27;;;4.57;;
27505;SDS011;14939;43.596;1.320;2023-05-10T02:45:37;24.60;;;4.78;;
27505;SDS011;14939;43.596;1.320;2023-05-10T02:48:04;26.27;;;4.20;;
27505;SDS011;14939;43.596;1.320;2023-05-10T02:50:31;26.17;;;4.60;;
27505;SDS011;14939;43.596;1.320;2023-05-10T02:53:03;23.10;;;4.75;;
27505;SDS011;14939;43.596;1.320;2023-05-10T02:58:10;35.08;;;5.88;;
27505;SDS011;14939;43.596;1.320;2023-05-10T03:00:37;25.05;;;5.38;;
27505;SDS011;14939;43.596;1.320;2023-05-10T03:03:03;24.20;;;5.00;;
27505;SDS011;14939;43.596;1.320;2023-05-10T03:05:29;25.73;;;4.47;;
27505;SDS011;14939;43.596;1.320;2023-05-10T03:07:54;23.55;;;4.10;;
27505;SDS011;14939;43.596;1.320;2023-05-10T03:10:21;21.17;;;3.60;;
27505;SDS011;14939;43.596;1.320;2023-05-10T03:18:18;20.63;;;3.33;;
27505;SDS011;14939;43.596;1.320;2023-05-10T03:20:48;17.85;;;3.30;;
27505;SDS011;14939;43.596;1.320;2023-05-10T03:26:05;19.13;;;3.03;;
27505;SDS011;14939;43.596;1.320;2023-05-10T03:28:33;18.15;;;3.60;;
27505;SDS011;14939;43.596;1.320;2023-05-10T03:31:00;20.77;;;3.00;;
27505;SDS011;14939;43.596;1.320;2023-05-10T03:33:29;24.42;;;3.50;;
27505;SDS011;14939;43.596;1.320;2023-05-10T03:35:54;20.77;;;3.10;;
27505;SDS011;14939;43.596;1.320;2023-05-10T03:38:20;20.15;;;3.50;;
27505;SDS011;14939;43.596;1.320;2023-05-10T03:40:46;19.58;;;3.15;;
27505;SDS011;14939;43.596;1.320;2023-05-10T03:43:12;17.45;;;3.15;;
27505;SDS011;14939;43.596;1.320;2023-05-10T03:45:37;21.25;;;3.65;;
27505;SDS011;14939;43.596;1.320;2023-05-10T03:48:03;18.67;;;2.88;;
27505;SDS011;14939;43.596;1.320;2023-05-10T03:50:29;16.08;;;2.90;;
27505;SDS011;14939;43.596;1.320;2023-05-10T03:52:55;19.90;;;3.45;;
27505;SDS011;14939;43.596;1.320;2023-05-10T03:55:20;23.25;;;3.35;;
27505;SDS011;14939;43.596;1.320;2023-05-10T03:57:47;24.83;;;3.35;;
27505;SDS011;14939;43.596;1.320;2023-05-10T04:00:14;21.00;;;3.30;;
27505;SDS011;14939;43.596;1.320;2023-05-10T04:02:41;18.52;;;3.10;;
27505;SDS011;14939;43.596;1.320;2023-05-10T04:05:06;23.67;;;3.47;;
27505;SDS011;14939;43.596;1.320;2023-05-10T04:07:32;26.55;;;3.53;;
27505;SDS011;14939;43.596;1.320;2023-05-10T04:09:58;21.55;;;3.20;;
27505;SDS011;14939;43.596;1.320;2023-05-10T04:15:08;22.08;;;4.28;;
27505;SDS011;14939;43.596;1.320;2023-05-10T04:17:34;21.65;;;3.45;;
27505;SDS011;14939;43.596;1.320;2023-05-10T04:20:00;22.08;;;4.00;;
27505;SDS011;14939;43.596;1.320;2023-05-10T04:22:26;21.52;;;3.45;;
27505;SDS011;14939;43.596;1.320;2023-05-10T04:24:52;22.70;;;3.80;;
27505;SDS011;14939;43.596;1.320;2023-05-10T04:27:18;22.05;;;3.92;;
27505;SDS011;14939;43.596;1.320;2023-05-10T04:29:43;20.20;;;3.85;;
27505;SDS011;14939;43.596;1.320;2023-05-10T04:32:09;22.50;;;3.90;;
27505;SDS011;14939;43.596;1.320;2023-05-10T04:34:36;25.25;;;4.68;;
27505;SDS011;14939;43.596;1.320;2023-05-10T04:37:02;21.30;;;4.35;;
27505;SDS011;14939;43.596;1.320;2023-05-10T04:39:27;21.15;;;3.85;;
27505;SDS011;14939;43.596;1.320;2023-05-10T04:41:53;17.88;;;3.40;;
27505;SDS011;14939;43.596;1.320;2023-05-10T04:44:19;22.98;;;3.70;;
27505;SDS011;14939;43.596;1.320;2023-05-10T04:46:44;20.35;;;3.85;;
27505;SDS011;14939;43.596;1.320;2023-05-10T04:49:10;27.33;;;4.13;;
27505;SDS011;14939;43.596;1.320;2023-05-10T04:51:36;22.83;;;4.75;;
27505;SDS011;14939;43.596;1.320;2023-05-10T04:54:02;27.52;;;4.53;;
27505;SDS011;14939;43.596;1.320;2023-05-10T04:56:27;25.05;;;4.47;;
27505;SDS011;14939;43.596;1.320;2023-05-10T04:58:53;31.58;;;4.30;;
27505;SDS011;14939;43.596;1.320;2023-05-10T05:01:19;24.23;;;4.03;;
27505;SDS011;14939;43.596;1.320;2023-05-10T05:03:44;26.70;;;4.47;;
27505;SDS011;14939;43.596;1.320;2023-05-10T05:06:10;28.75;;;5.18;;
27505;SDS011;14939;43.596;1.320;2023-05-10T05:08:36;27.40;;;4.57;;
27505;SDS011;14939;43.596;1.320;2023-05-10T05:11:02;28.55;;;4.30;;
27505;SDS011;14939;43.596;1.320;2023-05-10T05:13:27;28.10;;;5.00;;
27505;SDS011;14939;43.596;1.320;2023-05-10T05:15:53;25.13;;;4.88;;
27505;SDS011;14939;43.596;1.320;2023-05-10T05:18:19;28.17;;;5.90;;
27505;SDS011;14939;43.596;1.320;2023-05-10T05:20:45;28.20;;;4.80;;
27505;SDS011;14939;43.596;1.320;2023-05-10T05:23:10;27.05;;;5.32;;
27505;SDS011;14939;43.596;1.320;2023-05-10T05:25:36;23.58;;;5.22;;
27505;SDS011;14939;43.596;1.320;2023-05-10T05:28:02;27.13;;;4.93;;
27505;SDS011;14939;43.596;1.320;2023-05-10T05:30:27;28.23;;;4.70;;
27505;SDS011;14939;43.596;1.320;2023-05-10T05:32:53;28.55;;;4.20;;
27505;SDS011;14939;43.596;1.320;2023-05-10T05:35:19;33.60;;;4.70;;
27505;SDS011;14939;43.596;1.320;2023-05-10T05:37:44;24.42;;;4.22;;
27505;SDS011;14939;43.596;1.320;2023-05-10T05:40:12;24.02;;;4.15;;
27505;SDS011;14939;43.596;1.320;2023-05-10T05:42:38;24.48;;;4.38;;
27505;SDS011;14939;43.596;1.320;2023-05-10T05:45:04;24.60;;;4.05;;
27505;SDS011;14939;43.596;1.320;2023-05-10T05:47:30;27.90;;;4.38;;
27505;SDS011;14939;43.596;1.320;2023-05-10T05:49:56;27.25;;;4.72;;
27505;SDS011;14939;43.596;1.320;2023-05-10T05:52:21;25.25;;;4.35;;
27505;SDS011;14939;43.596;1.320;2023-05-10T05:54:47;24.83;;;4.05;;
27505;SDS011;14939;43.596;1.320;2023-05-10T05:57:13;20.02;;;3.85;;
27505;SDS011;14939;43.596;1.320;2023-05-10T05:59:38;27.55;;;4.00;;
27505;SDS011;14939;43.596;1.320;2023-05-10T06:02:08;21.88;;;3.97;;
27505;SDS011;14939;43.596;1.320;2023-05-10T06:04:34;23.40;;;4.00;;
27505;SDS011;14939;43.596;1.320;2023-05-10T06:07:00;20.08;;;3.88;;
27505;SDS011;14939;43.596;1.320;2023-05-10T06:09:26;26.50;;;4.28;;
27505;SDS011;14939;43.596;1.320;2023-05-10T06:11:52;26.17;;;4.90;;
27505;SDS011;14939;43.596;1.320;2023-05-10T06:14:20;26.08;;;4.40;;
27505;SDS011;14939;43.596;1.320;2023-05-10T06:16:46;22.30;;;4.55;;
27505;SDS011;14939;43.596;1.320;2023-05-10T06:19:11;23.25;;;4.55;;
27505;SDS011;14939;43.596;1.320;2023-05-10T06:21:37;28.67;;;4.57;;
27505;SDS011;14939;43.596;1.320;2023-05-10T06:24:03;33.10;;;4.40;;
27505;SDS011;14939;43.596;1.320;2023-05-10T06:26:30;27.17;;;3.95;;
27505;SDS011;14939;43.596;1.320;2023-05-10T06:28:56;24.05;;;4.00;;
27505;SDS011;14939;43.596;1.320;2023-05-10T06:31:21;25.98;;;4.00;;
27505;SDS011;14939;43.596;1.320;2023-05-10T06:33:47;25.38;;;4.57;;
27505;SDS011;14939;43.596;1.320;2023-05-10T06:36:13;20.33;;;4.10;;
27505;SDS011;14939;43.596;1.320;2023-05-10T06:38:38;33.17;;;4.10;;
27505;SDS011;14939;43.596;1.320;2023-05-10T06:41:04;21.98;;;3.53;;
27505;SDS011;14939;43.596;1.320;2023-05-10T06:43:30;24.38;;;4.47;;
27505;SDS011;14939;43.596;1.320;2023-05-10T06:45:56;24.77;;;3.67;;
27505;SDS011;14939;43.596;1.320;2023-05-10T06:48:22;25.40;;;3.97;;
27505;SDS011;14939;43.596;1.320;2023-05-10T06:50:48;17.77;;;3.42;;
27505;SDS011;14939;43.596;1.320;2023-05-10T06:53:14;26.00;;;3.80;;
27505;SDS011;14939;43.596;1.320;2023-05-10T06:55:40;20.92;;;3.40;;
27505;SDS011;14939;43.596;1.320;2023-05-10T06:58:06;25.17;;;3.70;;
27505;SDS011;14939;43.596;1.320;2023-05-10T07:00:31;22.83;;;4.03;;
27505;SDS011;14939;43.596;1.320;2023-05-10T07:02:57;22.55;;;3.95;;
27505;SDS011;14939;43.596;1.320;2023-05-10T07:05:23;17.17;;;3.20;;
27505;SDS011;14939;43.596;1.320;2023-05-10T07:07:49;19.25;;;3.08;;
27505;SDS011;14939;43.596;1.320;2023-05-10T07:10:15;20.58;;;3.17;;
27505;SDS011;14939;43.596;1.320;2023-05-10T07:12:41;19.52;;;3.50;;
27505;SDS011;14939;43.596;1.320;2023-05-10T07:15:07;20.17;;;3.13;;
27505;SDS011;14939;43.596;1.320;2023-05-10T07:17:33;21.23;;;2.95;;
27505;SDS011;14939;43.596;1.320;2023-05-10T07:19:59;21.45;;;3.80;;
27505;SDS011;14939;43.596;1.320;2023-05-10T07:22:25;21.17;;;3.30;;
27505;SDS011;14939;43.596;1.320;2023-05-10T07:24:51;20.38;;;3.70;;
27505;SDS011;14939;43.596;1.320;2023-05-10T07:27:16;23.67;;;3.10;;
27505;SDS011;14939;43.596;1.320;2023-05-10T07:29:42;19.23;;;2.92;;
27505;SDS011;14939;43.596;1.320;2023-05-10T07:32:08;21.80;;;3.25;;
27505;SDS011;14939;43.596;1.320;2023-05-10T07:34:34;19.23;;;3.15;;
27505;SDS011;14939;43.596;1.320;2023-05-10T07:36:59;21.27;;;2.97;;
27505;SDS011;14939;43.596;1.320;2023-05-10T07:39:26;19.45;;;3.50;;
27505;SDS011;14939;43.596;1.320;2023-05-10T07:41:52;20.58;;;4.15;;
27505;SDS011;14939;43.596;1.320;2023-05-10T07:44:18;18.67;;;3.03;;
27505;SDS011;14939;43.596;1.320;2023-05-10T07:46:45;17.75;;;3.03;;
27505;SDS011;14939;43.596;1.320;2023-05-10T07:49:11;19.08;;;3.35;;
27505;SDS011;14939;43.596;1.320;2023-05-10T07:51:37;18.77;;;2.80;;
27505;SDS011;14939;43.596;1.320;2023-05-10T07:54:02;18.67;;;3.72;;
27505;SDS011;14939;43.596;1.320;2023-05-10T07:56:29;23.33;;;3.88;;
27505;SDS011;14939;43.596;1.320;2023-05-10T07:58:56;17.83;;;3.05;;
27505;SDS011;14939;43.596;1.320;2023-05-10T08:01:23;19.27;;;3.00;;
27505;SDS011;14939;43.596;1.320;2023-05-10T08:03:49;20.65;;;2.92;;
27505;SDS011;14939;43.596;1.320;2023-05-10T08:06:16;19.65;;;3.08;;
27505;SDS011;14939;43.596;1.320;2023-05-10T08:08:43;20.63;;;3.17;;
27505;SDS011;14939;43.596;1.320;2023-05-10T08:11:14;18.88;;;3.15;;
27505;SDS011;14939;43.596;1.320;2023-05-10T08:13:43;19.90;;;3.25;;
27505;SDS011;14939;43.596;1.320;2023-05-10T08:16:09;20.83;;;3.53;;
27505;SDS011;14939;43.596;1.320;2023-05-10T08:18:36;14.93;;;3.20;;
27505;SDS011;14939;43.596;1.320;2023-05-10T08:21:02;21.55;;;3.08;;
27505;SDS011;14939;43.596;1.320;2023-05-10T08:23:28;21.15;;;3.50;;
27505;SDS011;14939;43.596;1.320;2023-05-10T08:25:53;15.93;;;3.22;;
27505;SDS011;14939;43.596;1.320;2023-05-10T08:28:19;22.20;;;2.88;;
27505;SDS011;14939;43.596;1.320;2023-05-10T08:30:45;18.05;;;2.80;;
27505;SDS011;14939;43.596;1.320;2023-05-10T08:33:11;15.07;;;2.80;;
27505;SDS011;14939;43.596;1.320;2023-05-10T08:35:37;16.23;;;2.90;;
27505;SDS011;14939;43.596;1.320;2023-05-10T08:38:02;17.15;;;3.25;;
27505;SDS011;14939;43.596;1.320;2023-05-10T08:40:28;17.67;;;3.05;;
27505;SDS011;14939;43.596;1.320;2023-05-10T08:42:55;17.88;;;3.28;;
27505;SDS011;14939;43.596;1.320;2023-05-10T08:45:32;18.65;;;2.80;;
27505;SDS011;14939;43.596;1.320;2023-05-10T08:47:59;17.85;;;2.70;;
27505;SDS011;14939;43.596;1.320;2023-05-10T08:50:27;13.60;;;2.67;;
27505;SDS011;14939;43.596;1.320;2023-05-10T08:52:55;15.18;;;2.30;;
27505;SDS011;14939;43.596;1.320;2023-05-10T08:55:25;15.60;;;2.78;;
27505;SDS011;14939;43.596;1.320;2023-05-10T08:57:51;17.73;;;2.63;;
27505;SDS011;14939;43.596;1.320;2023-05-10T09:00:16;15.85;;;2.55;;
27505;SDS011;14939;43.596;1.320;2023-05-10T09:02:43;15.70;;;2.38;;
27505;SDS011;14939;43.596;1.320;2023-05-10T09:05:11;15.35;;;2.22;;
27505;SDS011;14939;43.596;1.320;2023-05-10T09:07:37;16.23;;;2.50;;
27505;SDS011;14939;43.596;1.320;2023-05-10T09:10:03;14.93;;;2.00;;
27505;SDS011;14939;43.596;1.320;2023-05-10T09:12:29;13.55;;;2.65;;
27505;SDS011;14939;43.596;1.320;2023-05-10T09:14:55;12.18;;;2.40;;
27505;SDS011;14939;43.596;1.320;2023-05-10T09:17:23;12.73;;;2.33;;
27505;SDS011;14939;43.596;1.320;2023-05-10T09:19:50;11.10;;;2.00;;
27505;SDS011;14939;43.596;1.320;2023-05-10T09:22:23;14.98;;;2.78;;
27505;SDS011;14939;43.596;1.320;2023-05-10T09:25:03;16.77;;;2.58;;
27505;SDS011;14939;43.596;1.320;2023-05-10T09:27:39;13.52;;;2.42;;
27505;SDS011;14939;43.596;1.320;2023-05-10T09:30:07;14.05;;;2.63;;
27505;SDS011;14939;43.596;1.320;2023-05-10T09:32:40;15.35;;;2.42;;
27505;SDS011;14939;43.596;1.320;2023-05-10T09:35:14;13.40;;;2.20;;
27505;SDS011;14939;43.596;1.320;2023-05-10T09:37:41;15.85;;;3.28;;
27505;SDS011;14939;43.596;1.320;2023-05-10T09:40:15;13.65;;;2.50;;
27505;SDS011;14939;43.596;1.320;2023-05-10T09:42:42;13.65;;;2.40;;
27505;SDS011;14939;43.596;1.320;2023-05-10T09:45:30;11.13;;;2.50;;
27505;SDS011;14939;43.596;1.320;2023-05-10T09:47:57;12.95;;;2.25;;
27505;SDS011;14939;43.596;1.320;2023-05-10T09:50:24;14.15;;;2.65;;
27505;SDS011;14939;43.596;1.320;2023-05-10T09:52:51;12.23;;;2.22;;
27505;SDS011;14939;43.596;1.320;2023-05-10T09:55:22;10.55;;;2.55;;
27505;SDS011;14939;43.596;1.320;2023-05-10T09:58:00;9.52;;;1.98;;
27505;SDS011;14939;43.596;1.320;2023-05-10T10:00:27;13.70;;;2.13;;
27505;SDS011;14939;43.596;1.320;2023-05-10T10:02:57;10.13;;;2.03;;
27505;SDS011;14939;43.596;1.320;2023-05-10T10:05:34;15.98;;;2.28;;
27505;SDS011;14939;43.596;1.320;2023-05-10T10:08:04;9.73;;;1.80;;
27505;SDS011;14939;43.596;1.320;2023-05-10T10:10:31;9.80;;;1.65;;
27505;SDS011;14939;43.596;1.320;2023-05-10T10:12:58;10.40;;;2.30;;
27505;SDS011;14939;43.596;1.320;2023-05-10T10:15:24;7.95;;;1.70;;
27505;SDS011;14939;43.596;1.320;2023-05-10T10:17:51;7.80;;;1.50;;
27505;SDS011;14939;43.596;1.320;2023-05-10T10:20:18;8.23;;;1.88;;
27505;SDS011;14939;43.596;1.320;2023-05-10T10:22:44;6.22;;;1.42;;
27505;SDS011;14939;43.596;1.320;2023-05-10T10:25:11;7.93;;;1.55;;
27505;SDS011;14939;43.596;1.320;2023-05-10T10:27:56;10.63;;;1.90;;
27505;SDS011;14939;43.596;1.320;2023-05-10T10:30:48;11.48;;;2.22;;
27505;SDS011;14939;43.596;1.320;2023-05-10T10:36:01;10.80;;;2.38;;
27505;SDS011;14939;43.596;1.320;2023-05-10T10:38:54;10.93;;;2.30;;
27505;SDS011;14939;43.596;1.320;2023-05-10T10:47:03;9.05;;;1.90;;
27505;SDS011;14939;43.596;1.320;2023-05-10T11:00:23;12.05;;;2.28;;
27505;SDS011;14939;43.596;1.320;2023-05-10T11:02:51;12.15;;;2.03;;
27505;SDS011;14939;43.596;1.320;2023-05-10T11:05:25;13.75;;;3.28;;
27505;SDS011;14939;43.596;1.320;2023-05-10T11:07:54;12.00;;;2.30;;
27505;SDS011;14939;43.596;1.320;2023-05-10T11:10:22;16.58;;;6.68;;
27505;SDS011;14939;43.596;1.320;2023-05-10T11:12:52;11.60;;;2.13;;
27505;SDS011;14939;43.596;1.320;2023-05-10T11:15:31;12.20;;;2.10;;
27505;SDS011;14939;43.596;1.320;2023-05-10T11:17:59;10.88;;;1.75;;
27505;SDS011;14939;43.596;1.320;2023-05-10T11:20:28;10.85;;;2.15;;
27505;SDS011;14939;43.596;1.320;2023-05-10T11:23:10;12.07;;;2.25;;
27505;SDS011;14939;43.596;1.320;2023-05-10T11:25:44;9.45;;;2.17;;
27505;SDS011;14939;43.596;1.320;2023-05-10T11:28:11;6.88;;;1.60;;
27505;SDS011;14939;43.596;1.320;2023-05-10T11:30:41;9.82;;;1.88;;
27505;SDS011;14939;43.596;1.320;2023-05-10T11:33:09;9.25;;;1.35;;
27505;SDS011;14939;43.596;1.320;2023-05-10T11:35:40;7.32;;;1.55;;
27505;SDS011;14939;43.596;1.320;2023-05-10T11:38:09;8.02;;;1.60;;
27505;SDS011;14939;43.596;1.320;2023-05-10T11:40:36;7.70;;;1.45;;
27505;SDS011;14939;43.596;1.320;2023-05-10T11:43:03;7.95;;;1.52;;
27505;SDS011;14939;43.596;1.320;2023-05-10T11:45:33;6.65;;;1.33;;
27505;SDS011;14939;43.596;1.320;2023-05-10T11:48:00;7.60;;;1.42;;
27505;SDS011;14939;43.596;1.320;2023-05-10T11:50:26;5.72;;;1.17;;
27505;SDS011;14939;43.596;1.320;2023-05-10T11:52:53;6.40;;;1.17;;
27505;SDS011;14939;43.596;1.320;2023-05-10T11:55:19;7.78;;;1.60;;
27505;SDS011;14939;43.596;1.320;2023-05-10T11:57:45;6.18;;;1.08;;
27505;SDS011;14939;43.596;1.320;2023-05-10T12:00:12;5.82;;;1.08;;
27505;SDS011;14939;43.596;1.320;2023-05-10T12:02:39;5.15;;;1.08;;
27505;SDS011;14939;43.596;1.320;2023-05-10T12:05:06;6.75;;;1.35;;
27505;SDS011;14939;43.596;1.320;2023-05-10T12:07:32;4.68;;;1.17;;
27505;SDS011;14939;43.596;1.320;2023-05-10T12:10:11;11.75;;;1.75;;
27505;SDS011;14939;43.596;1.320;2023-05-10T12:12:46;8.70;;;1.65;;
27505;SDS011;14939;43.596;1.320;2023-05-10T12:15:22;12.30;;;1.60;;
27505;SDS011;14939;43.596;1.320;2023-05-10T12:17:49;7.47;;;1.60;;
27505;SDS011;14939;43.596;1.320;2023-05-10T12:20:19;9.95;;;2.22;;
27505;SDS011;14939;43.596;1.320;2023-05-10T12:22:47;12.98;;;1.92;;
27505;SDS011;14939;43.596;1.320;2023-05-10T12:25:18;10.88;;;2.10;;
27505;SDS011;14939;43.596;1.320;2023-05-10T12:27:52;10.20;;;1.77;;
27505;SDS011;14939;43.596;1.320;2023-05-10T12:30:26;9.52;;;1.70;;
27505;SDS011;14939;43.596;1.320;2023-05-10T12:32:53;7.85;;;1.30;;
27505;SDS011;14939;43.596;1.320;2023-05-10T12:35:19;6.82;;;1.27;;
27505;SDS011;14939;43.596;1.320;2023-05-10T12:37:47;7.72;;;1.23;;
27505;SDS011;14939;43.596;1.320;2023-05-10T12:40:13;6.80;;;1.30;;
27505;SDS011;14939;43.596;1.320;2023-05-10T12:42:39;4.40;;;1.20;;
27505;SDS011;14939;43.596;1.320;2023-05-10T12:45:06;5.57;;;1.38;;
27505;SDS011;14939;43.596;1.320;2023-05-10T12:47:32;5.75;;;1.35;;
27505;SDS011;14939;43.596;1.320;2023-05-10T12:49:59;10.23;;;1.23;;
27505;SDS011;14939;43.596;1.320;2023-05-10T12:52:26;5.20;;;1.13;;
27505;SDS011;14939;43.596;1.320;2023-05-10T12:54:52;6.18;;;1.10;;
27505;SDS011;14939;43.596;1.320;2023-05-10T12:57:19;3.70;;;1.17;;
27505;SDS011;14939;43.596;1.320;2023-05-10T12:59:46;7.55;;;1.20;;
27505;SDS011;14939;43.596;1.320;2023-05-10T13:02:12;4.72;;;1.25;;
27505;SDS011;14939;43.596;1.320;2023-05-10T13:04:39;5.68;;;1.30;;
27505;SDS011;14939;43.596;1.320;2023-05-10T13:07:06;5.45;;;1.20;;
27505;SDS011;14939;43.596;1.320;2023-05-10T13:09:32;6.63;;;1.10;;
27505;SDS011;14939;43.596;1.320;2023-05-10T13:11:57;7.53;;;1.20;;
27505;SDS011;14939;43.596;1.320;2023-05-10T13:14:23;4.80;;;1.20;;
27505;SDS011;14939;43.596;1.320;2023-05-10T13:16:50;4.68;;;1.23;;
27505;SDS011;14939;43.596;1.320;2023-05-10T13:19:16;5.53;;;1.30;;
27505;SDS011;14939;43.596;1.320;2023-05-10T13:21:42;8.93;;;1.50;;
27505;SDS011;14939;43.596;1.320;2023-05-10T13:24:12;3.47;;;0.90;;
27505;SDS011;14939;43.596;1.320;2023-05-10T13:26:42;3.92;;;1.10;;
27505;SDS011;14939;43.596;1.320;2023-05-10T13:29:10;5.32;;;1.00;;
27505;SDS011;14939;43.596;1.320;2023-05-10T13:31:36;7.43;;;2.05;;
27505;SDS011;14939;43.596;1.320;2023-05-10T13:34:02;5.55;;;1.23;;
27505;SDS011;14939;43.596;1.320;2023-05-10T13:36:28;5.10;;;1.10;;
27505;SDS011;14939;43.596;1.320;2023-05-10T13:38:54;7.57;;;1.23;;
27505;SDS011;14939;43.596;1.320;2023-05-10T13:41:19;4.07;;;1.08;;
27505;SDS011;14939;43.596;1.320;2023-05-10T13:43:45;4.82;;;1.20;;
27505;SDS011;14939;43.596;1.320;2023-05-10T13:46:13;5.63;;;1.10;;
27505;SDS011;14939;43.596;1.320;2023-05-10T13:48:39;7.68;;;1.40;;
27505;SDS011;14939;43.596;1.320;2023-05-10T13:51:04;5.15;;;1.40;;
27505;SDS011;14939;43.596;1.320;2023-05-10T13:53:30;8.30;;;1.45;;
27505;SDS011;14939;43.596;1.320;2023-05-10T13:55:56;8.95;;;1.58;;
27505;SDS011;14939;43.596;1.320;2023-05-10T13:58:23;8.45;;;1.30;;
27505;SDS011;14939;43.596;1.320;2023-05-10T14:00:48;5.32;;;1.17;;
27505;SDS011;14939;43.596;1.320;2023-05-10T14:03:14;5.10;;;1.17;;
27505;SDS011;14939;43.596;1.320;2023-05-10T14:05:40;5.35;;;1.33;;
27505;SDS011;14939;43.596;1.320;2023-05-10T14:08:05;7.03;;;1.38;;
27505;SDS011;14939;43.596;1.320;2023-05-10T14:10:32;6.82;;;1.40;;
27505;SDS011;14939;43.596;1.320;2023-05-10T14:12:58;7.72;;;1.25;;
27505;SDS011;14939;43.596;1.320;2023-05-10T14:15:24;4.88;;;1.10;;
27505;SDS011;14939;43.596;1.320;2023-05-10T14:17:49;5.38;;;1.40;;
27505;SDS011;14939;43.596;1.320;2023-05-10T14:20:15;5.45;;;1.45;;
27505;SDS011;14939;43.596;1.320;2023-05-10T14:22:41;4.32;;;1.38;;
27505;SDS011;14939;43.596;1.320;2023-05-10T14:25:06;5.50;;;1.30;;
27505;SDS011;14939;43.596;1.320;2023-05-10T14:27:32;4.18;;;1.10;;
27505;SDS011;14939;43.596;1.320;2023-05-10T14:29:58;4.10;;;1.15;;
27505;SDS011;14939;43.596;1.320;2023-05-10T14:32:24;3.45;;;1.00;;
27505;SDS011;14939;43.596;1.320;2023-05-10T14:34:51;4.75;;;1.10;;
27505;SDS011;14939;43.596;1.320;2023-05-10T14:37:17;5.03;;;1.15;;
27505;SDS011;14939;43.596;1.320;2023-05-10T14:39:43;8.73;;;1.33;;
27505;SDS011;14939;43.596;1.320;2023-05-10T14:42:08;4.57;;;1.83;;
27505;SDS011;14939;43.596;1.320;2023-05-10T14:44:34;7.10;;;1.27;;
27505;SDS011;14939;43.596;1.320;2023-05-10T14:47:00;5.47;;;1.35;;
27505;SDS011;14939;43.596;1.320;2023-05-10T14:49:25;10.32;;;1.75;;
27505;SDS011;14939;43.596;1.320;2023-05-10T14:51:51;9.13;;;1.63;;
27505;SDS011;14939;43.596;1.320;2023-05-10T14:54:17;4.70;;;1.70;;
27505;SDS011;14939;43.596;1.320;2023-05-10T14:56:43;8.85;;;1.45;;
27505;SDS011;14939;43.596;1.320;2023-05-10T14:59:09;6.30;;;1.50;;
27505;SDS011;14939;43.596;1.320;2023-05-10T15:01:35;6.80;;;1.40;;
27505;SDS011;14939;43.596;1.320;2023-05-10T15:04:02;6.82;;;1.40;;
27505;SDS011;14939;43.596;1.320;2023-05-10T15:06:30;6.63;;;1.50;;
27505;SDS011;14939;43.596;1.320;2023-05-10T15:08:57;7.47;;;1.65;;
27505;SDS011;14939;43.596;1.320;2023-05-10T15:11:23;8.57;;;1.45;;
27505;SDS011;14939;43.596;1.320;2023-05-10T15:13:49;7.57;;;1.60;;
27505;SDS011;14939;43.596;1.320;2023-05-10T15:16:15;6.28;;;1.58;;
27505;SDS011;14939;43.596;1.320;2023-05-10T15:18:40;10.73;;;1.90;;
27505;SDS011;14939;43.596;1.320;2023-05-10T15:21:06;6.18;;;1.60;;
27505;SDS011;14939;43.596;1.320;2023-05-10T15:23:32;7.20;;;1.60;;
27505;SDS011;14939;43.596;1.320;2023-05-10T15:25:59;11.18;;;2.00;;